2020/07/16 17:30 YSSY 161730Z 21018KT 9999 FEW020 BKN024 13/08 Q1018 NOSIG
2020/07/16 17:30 YMML 161730Z 01005KT 9999 FEW010 03/02 Q1023 FM1730 35005KT 0500 FG FEW005 SCT010
2020/07/16 17:30 YSCB 161730Z AUTO 03004KT 9999 // NCD 03/02 Q1020
2020/07/16 17:30 YPAD 161730Z 11002KT 9999 BCFG NSC 05/04 Q1021
2020/07/16 17:30 YPPH 161730Z 25002KT 9999 -RA FEW011 OVC060 13/12 Q1010 INTER 1745/2030 5000 SHRA SCT010 BKN015
2020/07/16 17:30 YBBN 161730Z 23006KT CAVOK 09/03 Q1013 NOSIG
2020/07/16 17:30 YMHB 161730Z AUTO 31005KT 9999 // NCD 05/02 Q1024 RF00.0/000.0
2020/07/16 17:30 NZAA 161730Z AUTO 12010KT 9999 NCD 12/09 Q1009 NOSIG
2020/07/16 17:30 NZCH 161730Z AUTO 00000KT 9999 SCT018/// BKN025/// OVC033/// 01/00 Q1022 NOSIG

Powered by MinhViet JSC.